Time;durP1;ratioP1;P1;durP2;ratioP2;P2;SDS_P1;SDS_P2;PMS_P1;PMS_P2;Temp;Humidity;BMP_temperature;BMP_pressure;BME280_temperature;BME280_humidity;BME280_pressure;Samples;Min_cycle;Max_cycle;Signal;HPM_P1;HPM_P2
2022/05/13 00:01:58;;;;;;;4.13;1.80;;;;;;;10.84;nan;101668.31;5021969;28;20103;-41
2022/05/13 00:04:23;;;;;;;2.60;1.55;;;;;;;10.81;nan;101670.66;5021587;28;20307;-42
2022/05/13 00:06:49;;;;;;;3.60;1.35;;;;;;;10.92;nan;101672.53;5018542;28;20028;-41
2022/05/13 00:09:15;;;;;;;2.17;1.60;;;;;;;11.00;nan;101671.41;5021118;28;20514;-41
2022/05/13 00:11:40;;;;;;;1.92;1.52;;;;;;;10.93;nan;101676.03;5024450;28;20064;-42
2022/05/13 00:14:08;;;;;;;4.28;1.60;;;;;;;10.87;nan;101683.94;5017615;28;20026;-42
2022/05/13 00:16:35;;;;;;;3.15;1.75;;;;;;;10.82;nan;101680.31;5021226;28;20061;-41
2022/05/13 00:19:03;;;;;;;4.10;1.42;;;;;;;10.77;nan;101672.13;5023164;28;20103;-41
2022/05/13 00:21:28;;;;;;;3.20;1.83;;;;;;;10.72;nan;101685.41;5017692;28;20033;-41
2022/05/13 00:23:54;;;;;;;6.35;1.70;;;;;;;10.73;nan;101676.31;5021040;28;20034;-41
2022/05/13 00:26:19;;;;;;;8.80;1.58;;;;;;;10.62;nan;101687.81;5025128;28;20029;-41
2022/05/13 00:28:45;;;;;;;4.18;1.55;;;;;;;10.49;nan;101678.88;5023519;28;20017;-41
2022/05/13 00:31:12;;;;;;;1.77;1.40;;;;;;;10.35;nan;101676.56;5018377;28;20128;-41
2022/05/13 00:33:38;;;;;;;4.53;1.80;;;;;;;10.22;nan;101675.66;5018083;28;20060;-41
2022/05/13 00:36:04;;;;;;;8.52;2.00;;;;;;;10.15;nan;101674.91;5023184;28;20109;-41
2022/05/13 00:38:30;;;;;;;3.50;1.77;;;;;;;10.12;nan;101669.19;5018223;28;20489;-41
2022/05/13 00:40:56;;;;;;;2.92;1.90;;;;;;;10.11;nan;101678.25;5023200;28;20136;-42
2022/05/13 00:43:39;;;;;;;2.30;1.40;;;;;;;10.19;nan;101669.91;5018859;28;20109;-41
2022/05/13 00:46:04;;;;;;;2.92;1.80;;;;;;;10.35;nan;101666.69;5023010;28;20112;-41
2022/05/13 00:48:30;;;;;;;3.92;2.00;;;;;;;10.32;nan;101669.81;5015779;28;20148;-41
2022/05/13 00:50:55;;;;;;;2.38;1.40;;;;;;;10.21;nan;101667.88;5022249;28;20554;-42
2022/05/13 00:53:22;;;;;;;2.33;1.60;;;;;;;10.12;nan;101669.19;5021893;28;20079;-41
2022/05/13 00:55:48;;;;;;;3.15;1.70;;;;;;;10.05;nan;101663.06;5024008;28;20049;-41
2022/05/13 00:58:20;;;;;;;1.77;1.42;;;;;;;9.98;nan;101663.97;5020144;28;20055;-41
2022/05/13 01:00:47;;;;;;;2.30;1.58;;;;;;;9.88;nan;101669.00;5021352;28;20091;-40
2022/05/13 01:03:14;;;;;;;6.10;1.50;;;;;;;9.78;nan;101668.69;5021136;28;20029;-41
2022/05/13 01:05:46;;;;;;;5.05;1.80;;;;;;;9.72;nan;101669.56;5019312;28;20025;-40
2022/05/13 01:08:12;;;;;;;4.13;1.88;;;;;;;9.63;nan;101668.19;5021364;28;20030;-41
2022/05/13 01:10:40;;;;;;;2.97;2.10;;;;;;;9.49;nan;101667.50;5022561;28;20391;-42
2022/05/13 01:13:10;;;;;;;4.40;2.20;;;;;;;9.37;nan;101666.56;5016550;28;20400;-41
2022/05/13 01:15:39;;;;;;;2.20;2.00;;;;;;;9.42;nan;101663.25;5024460;28;20017;-41
2022/05/13 01:18:06;;;;;;;3.40;2.08;;;;;;;9.46;nan;101670.59;5024090;28;20062;-42
2022/05/13 01:20:46;;;;;;;2.72;1.90;;;;;;;9.40;nan;101668.81;5020892;28;20040;-41
2022/05/13 01:23:19;;;;;;;3.35;2.08;;;;;;;9.34;nan;101669.69;5028084;28;20061;-41
2022/05/13 01:25:51;;;;;;;4.53;2.25;;;;;;;9.24;nan;101669.34;5025264;28;20021;-41
2022/05/13 01:28:20;;;;;;;3.40;2.05;;;;;;;9.18;nan;101672.88;5018271;28;20302;-41
2022/05/13 01:30:51;;;;;;;3.50;2.08;;;;;;;9.09;nan;101678.47;5020835;28;20029;-43
2022/05/13 01:33:17;;;;;;;2.60;2.28;;;;;;;8.99;nan;101674.66;5018775;28;20385;-42
2022/05/13 01:35:46;;;;;;;3.83;2.35;;;;;;;8.98;nan;101670.34;5013496;28;20387;-41
2022/05/13 01:38:13;;;;;;;6.78;2.03;;;;;;;8.94;nan;101667.25;5022140;28;20112;-41
2022/05/13 01:40:39;;;;;;;3.88;2.50;;;;;;;8.89;nan;101664.41;5020392;28;20025;-41
2022/05/13 01:43:05;;;;;;;3.42;2.45;;;;;;;8.76;nan;101659.13;5016721;28;20364;-41
2022/05/13 01:45:31;;;;;;;5.20;2.55;;;;;;;8.71;nan;101654.44;5021073;28;20072;-40
2022/05/13 01:47:56;;;;;;;3.47;2.15;;;;;;;8.59;nan;101653.47;5020809;28;20114;-41
2022/05/13 01:50:23;;;;;;;3.05;2.10;;;;;;;8.55;nan;101656.78;5017485;28;20013;-40
2022/05/13 01:52:49;;;;;;;5.22;2.50;;;;;;;8.54;nan;101653.28;5024118;28;20055;-41
2022/05/13 01:55:15;;;;;;;3.30;2.72;;;;;;;8.59;nan;101653.47;5017600;28;20030;-41
2022/05/13 01:57:41;;;;;;;4.72;2.30;;;;;;;8.67;nan;101655.91;5021085;28;20341;-40
2022/05/13 02:00:07;;;;;;;5.43;2.40;;;;;;;8.71;nan;101659.78;5013493;28;20116;-41
2022/05/13 02:03:44;;;;;;;4.35;2.30;;;;;;;8.67;nan;101653.22;5021395;28;20547;-41
2022/05/13 02:05:19;;;;;;;3.58;2.25;;;;;;;8.62;nan;101646.91;5013882;28;20033;-41
2022/05/13 02:07:45;;;;;;;4.95;2.22;;;;;;;8.60;nan;101652.44;5021717;28;20104;-40
2022/05/13 02:10:10;;;;;;;6.18;1.70;;;;;;;8.53;nan;101651.66;5018812;28;20109;-41
2022/05/13 02:12:36;;;;;;;5.60;2.20;;;;;;;8.53;nan;101657.00;5026849;28;20041;-41
2022/05/13 02:15:01;;;;;;;3.80;2.35;;;;;;;8.51;nan;101660.91;5021473;28;20033;-41
2022/05/13 02:17:27;;;;;;;3.47;2.15;;;;;;;8.44;nan;101661.75;5023525;28;20100;-41
2022/05/13 02:19:52;;;;;;;7.40;2.30;;;;;;;8.39;nan;101658.06;5021410;28;20025;-41
2022/05/13 02:22:18;;;;;;;4.20;2.30;;;;;;;8.27;nan;101657.06;5025985;28;20061;-41
2022/05/13 02:24:43;;;;;;;3.75;2.50;;;;;;;8.34;nan;101655.22;5017878;28;20067;-41
2022/05/13 02:27:09;;;;;;;3.45;2.60;;;;;;;8.37;nan;101654.78;5025799;28;20029;-41
2022/05/13 02:29:34;;;;;;;5.20;2.13;;;;;;;8.30;nan;101653.97;5025135;28;20033;-41
2022/05/13 02:32:00;;;;;;;5.13;2.45;;;;;;;8.30;nan;101656.66;5021345;28;20041;-40
2022/05/13 02:34:25;;;;;;;3.75;2.25;;;;;;;8.30;nan;101652.13;5023435;28;20071;-41
2022/05/13 02:36:51;;;;;;;3.58;2.38;;;;;;;8.24;nan;101646.78;5020887;28;20026;-42
2022/05/13 02:39:16;;;;;;;5.45;2.17;;;;;;;8.28;nan;101656.84;5019968;28;20030;-40
2022/05/13 02:41:44;;;;;;;4.05;2.65;;;;;;;8.36;nan;101645.97;5027280;28;20455;-42
2022/05/13 02:44:10;;;;;;;5.70;3.10;;;;;;;8.22;nan;101640.84;5024667;28;20398;-41
2022/05/13 02:46:36;;;;;;;7.00;3.22;;;;;;;8.05;nan;101640.47;5021793;28;20036;-41
2022/05/13 02:49:02;;;;;;;6.05;3.63;;;;;;;8.12;nan;101642.13;5021616;28;20022;-40
2022/05/13 02:51:28;;;;;;;3.67;3.13;;;;;;;8.24;nan;101644.94;5022648;28;20529;-40
2022/05/13 02:53:55;;;;;;;7.57;3.63;;;;;;;8.14;nan;101645.41;5023814;28;20069;-41
2022/05/13 02:56:20;;;;;;;7.25;3.45;;;;;;;8.00;nan;101638.44;5016792;28;20026;-40
2022/05/13 02:58:46;;;;;;;7.65;4.40;;;;;;;8.02;nan;101636.38;5024230;28;20040;-41
2022/05/13 03:01:14;;;;;;;5.25;4.05;;;;;;;8.17;nan;101644.16;5023382;28;20032;-40
2022/05/13 03:03:41;;;;;;;5.20;3.50;;;;;;;8.13;nan;101641.09;5017811;28;20392;-41
2022/05/13 03:06:07;;;;;;;5.28;4.15;;;;;;;8.02;nan;101631.03;5020546;28;20018;-40
2022/05/13 03:08:33;;;;;;;5.45;3.83;;;;;;;8.05;nan;101632.47;5024680;28;20068;-41
2022/05/13 03:10:58;;;;;;;6.18;3.60;;;;;;;8.10;nan;101633.50;5023212;28;20113;-41
2022/05/13 03:13:24;;;;;;;11.13;3.70;;;;;;;8.00;nan;101638.44;5019799;28;20048;-40
2022/05/13 03:15:50;;;;;;;6.18;4.35;;;;;;;7.97;nan;101625.53;5022620;28;20044;-41
2022/05/13 03:18:15;;;;;;;10.18;6.22;;;;;;;7.96;nan;101625.75;5022120;28;20034;-40
2022/05/13 03:20:41;;;;;;;9.05;5.47;;;;;;;7.95;nan;101624.09;5020172;28;20530;-40
2022/05/13 03:23:07;;;;;;;5.43;3.38;;;;;;;7.92;nan;101633.34;5020357;28;20026;-40
2022/05/13 03:25:32;;;;;;;7.68;4.28;;;;;;;7.87;nan;101633.94;5021843;28;20040;-41
2022/05/13 03:27:58;;;;;;;6.72;4.43;;;;;;;7.79;nan;101630.69;5021192;28;20030;-41
2022/05/13 03:30:25;;;;;;;7.88;5.57;;;;;;;7.76;nan;101636.44;5022954;28;20120;-41
2022/05/13 03:32:53;;;;;;;11.52;3.97;;;;;;;7.78;nan;101626.38;5020073;28;20033;-40
2022/05/13 03:35:20;;;;;;;5.20;4.00;;;;;;;7.80;nan;101627.81;5021073;28;20739;-42
2022/05/13 03:37:46;;;;;;;4.93;4.15;;;;;;;7.80;nan;101632.34;5020935;28;20022;-40
2022/05/13 03:40:13;;;;;;;4.07;3.00;;;;;;;7.82;nan;101638.28;5020047;28;20700;-41
2022/05/13 03:42:39;;;;;;;4.18;2.70;;;;;;;7.85;nan;101645.88;5025196;28;20052;-40
2022/05/13 03:45:06;;;;;;;5.78;3.85;;;;;;;7.90;nan;101643.41;5016552;28;20738;-41
2022/05/13 03:47:32;;;;;;;4.25;3.30;;;;;;;7.92;nan;101635.19;5016549;28;20033;-41
2022/05/13 03:49:58;;;;;;;3.67;3.20;;;;;;;7.94;nan;101633.13;5019188;28;20030;-41
2022/05/13 03:52:23;;;;;;;4.25;3.83;;;;;;;7.85;nan;101635.19;5018453;28;20052;-41
2022/05/13 03:54:49;;;;;;;6.18;3.53;;;;;;;7.79;nan;101628.84;5020586;28;20083;-40
2022/05/13 03:57:14;;;;;;;7.57;3.65;;;;;;;7.65;nan;101634.41;5018211;28;20037;-40
2022/05/13 03:59:40;;;;;;;3.35;3.05;;;;;;;7.53;nan;101632.34;5023376;28;20112;-40
2022/05/13 04:02:05;;;;;;;4.72;3.10;;;;;;;7.66;nan;101642.19;5019105;28;20104;-42
2022/05/13 04:08:56;;;;;;;5.00;2.85;;;;;;;7.79;nan;101625.38;5017638;28;20276;-40
2022/05/13 04:10:06;;;;;;;3.92;3.55;;;;;;;7.99;nan;101631.47;5020412;28;20111;-40
2022/05/13 04:18:00;;;;;;;5.50;4.80;;;;;;;8.03;nan;101624.69;5021482;28;20040;-41
2022/05/13 04:20:26;;;;;;;6.47;4.72;;;;;;;8.09;nan;101637.22;5021118;28;20268;-40
2022/05/13 04:22:52;;;;;;;7.45;4.80;;;;;;;8.25;nan;101638.56;5020420;28;20033;-40
2022/05/13 04:25:18;;;;;;;7.43;4.40;;;;;;;8.42;nan;101647.78;5020408;28;20033;-41
2022/05/13 04:27:43;;;;;;;6.78;3.95;;;;;;;8.58;nan;101651.81;5022920;28;20391;-41
2022/05/13 04:30:10;;;;;;;6.20;4.47;;;;;;;8.67;nan;101647.88;5022070;28;20036;-41
2022/05/13 04:32:35;;;;;;;6.53;4.57;;;;;;;8.74;nan;101643.31;5024163;28;20029;-42
2022/05/13 04:35:01;;;;;;;8.30;4.80;;;;;;;8.83;nan;101640.41;5017313;28;20079;-41
2022/05/13 04:37:27;;;;;;;9.27;4.97;;;;;;;8.89;nan;101647.56;5022880;28;20025;-41
2022/05/13 04:39:53;;;;;;;8.60;5.10;;;;;;;8.92;nan;101642.59;5018763;28;20412;-40
2022/05/13 04:45:05;;;;;;;12.18;5.40;;;;;;;9.15;nan;101642.03;5020042;28;20399;-41
2022/05/13 04:50:16;;;;;;;7.32;5.28;;;;;;;9.23;nan;101632.94;4990529;28;20052;-40
2022/05/13 04:52:42;;;;;;;7.43;5.50;;;;;;;9.28;nan;101641.13;5022462;28;20029;-41
2022/05/13 04:55:09;;;;;;;5.55;4.60;;;;;;;9.31;nan;101646.84;5020193;28;20032;-41
2022/05/13 04:57:35;;;;;;;5.97;5.10;;;;;;;9.48;nan;101640.97;5017147;28;20473;-40
2022/05/13 05:00:01;;;;;;;6.47;4.82;;;;;;;9.63;nan;101655.63;5011517;28;20025;-41
2022/05/13 05:02:28;;;;;;;5.43;4.43;;;;;;;9.78;nan;101659.84;5020467;28;20450;-41
2022/05/13 05:04:53;;;;;;;7.50;4.38;;;;;;;9.94;nan;101665.44;5016762;28;20506;-41
2022/05/13 05:07:19;;;;;;;7.15;4.78;;;;;;;10.09;nan;101659.75;5017966;28;20042;-40
2022/05/13 05:09:45;;;;;;;6.72;4.10;;;;;;;10.22;nan;101653.44;5016965;28;20017;-40
2022/05/13 05:12:10;;;;;;;7.07;4.53;;;;;;;10.28;nan;101647.19;5017586;28;20061;-41
2022/05/13 05:14:36;;;;;;;5.38;4.03;;;;;;;10.45;nan;101647.41;5015753;28;20026;-40
2022/05/13 05:17:02;;;;;;;5.50;4.00;;;;;;;10.62;nan;101655.66;5020893;28;20044;-42
2022/05/13 05:19:27;;;;;;;8.60;5.90;;;;;;;10.77;nan;101648.00;5019216;28;20021;-41
2022/05/13 05:21:53;;;;;;;7.13;5.07;;;;;;;10.92;nan;101652.94;5022127;28;20069;-40
2022/05/13 05:24:18;;;;;;;8.88;5.30;;;;;;;11.02;nan;101647.88;5019280;28;20512;-40
2022/05/13 05:26:44;;;;;;;8.43;4.82;;;;;;;11.10;nan;101640.28;5022550;28;20036;-42
2022/05/13 05:29:09;;;;;;;9.75;6.03;;;;;;;11.19;nan;101638.94;5021670;28;20116;-41
2022/05/13 05:31:35;;;;;;;9.55;5.07;;;;;;;11.31;nan;101643.47;5017866;28;20032;-41
2022/05/13 05:34:00;;;;;;;12.68;5.75;;;;;;;11.44;nan;101645.97;5019941;28;20033;-41
2022/05/13 05:36:26;;;;;;;6.10;5.13;;;;;;;11.53;nan;101649.13;5021209;28;20021;-41
2022/05/13 05:38:51;;;;;;;8.57;5.03;;;;;;;11.66;nan;101647.03;5028428;28;20033;-40
2022/05/13 05:41:18;;;;;;;8.38;5.78;;;;;;;11.76;nan;101643.75;5014453;28;20030;-40
2022/05/13 05:43:44;;;;;;;7.13;5.82;;;;;;;11.89;nan;101646.25;5020562;28;20060;-41
2022/05/13 05:46:09;;;;;;;8.13;5.75;;;;;;;11.97;nan;101645.06;5013576;28;20041;-41
2022/05/13 05:48:35;;;;;;;10.77;5.97;;;;;;;12.08;nan;101634.31;5017582;28;20387;-41
2022/05/13 05:51:01;;;;;;;10.15;6.03;;;;;;;12.16;nan;101632.31;5016766;28;20157;-41
2022/05/13 05:59:00;;;;;;;10.93;6.30;;;;;;;12.35;nan;101620.34;5019064;28;20041;-40
2022/05/13 06:01:26;;;;;;;7.38;5.20;;;;;;;12.52;nan;101623.09;5018209;28;20112;-41
2022/05/13 06:03:52;;;;;;;8.85;5.20;;;;;;;12.69;nan;101626.66;5017517;28;20026;-41
2022/05/13 06:06:18;;;;;;;8.65;5.20;;;;;;;12.87;nan;101629.13;5018352;28;20037;-41
2022/05/13 06:08:43;;;;;;;7.97;4.85;;;;;;;12.97;nan;101632.00;5018904;28;20018;-41
2022/05/13 06:11:09;;;;;;;7.53;5.28;;;;;;;13.06;nan;101628.91;5020297;28;20380;-41
2022/05/13 06:13:36;;;;;;;10.18;5.60;;;;;;;13.08;nan;101630.28;5015619;28;20035;-41
2022/05/13 06:16:01;;;;;;;6.15;4.72;;;;;;;13.22;nan;101633.53;5015188;28;20029;-41
2022/05/13 06:18:27;;;;;;;6.47;4.20;;;;;;;13.34;nan;101650.44;5019830;28;20479;-41
2022/05/13 06:20:52;;;;;;;6.90;3.92;;;;;;;13.42;nan;101652.69;5018600;28;20119;-41
2022/05/13 06:23:18;;;;;;;8.85;4.13;;;;;;;13.52;nan;101644.78;5020975;28;20032;-40
2022/05/13 06:25:43;;;;;;;11.38;3.80;;;;;;;13.50;nan;101644.22;5015859;28;20025;-41
2022/05/13 06:28:09;;;;;;;8.75;3.55;;;;;;;13.54;nan;101644.53;5017718;28;20025;-41
2022/05/13 06:30:36;;;;;;;5.57;3.65;;;;;;;13.61;nan;101645.19;5020981;28;20626;-40
2022/05/13 06:33:03;;;;;;;12.13;3.92;;;;;;;13.70;nan;101642.91;5014720;28;20037;-40
2022/05/13 06:35:31;;;;;;;9.50;3.67;;;;;;;13.82;nan;101646.28;5016749;28;20036;-41
2022/05/13 06:37:57;;;;;;;7.25;3.70;;;;;;;13.93;nan;101644.56;5015316;28;20487;-40
2022/05/13 06:40:23;;;;;;;6.72;3.50;;;;;;;14.03;nan;101648.22;5017453;28;20036;-41
2022/05/13 06:42:49;;;;;;;7.93;3.47;;;;;;;14.11;nan;101639.69;5020178;28;20030;-41
2022/05/13 06:45:15;;;;;;;10.70;3.85;;;;;;;14.07;nan;101635.88;5021633;28;20057;-40
2022/05/13 06:47:41;;;;;;;4.70;3.13;;;;;;;14.15;nan;101643.53;5017199;28;20112;-41
2022/05/13 06:50:09;;;;;;;7.65;2.95;;;;;;;14.32;nan;101637.25;5017784;28;20021;-41
2022/05/13 06:52:34;;;;;;;5.97;3.03;;;;;;;14.47;nan;101637.47;5018130;28;20985;-40
2022/05/13 06:55:00;;;;;;;5.65;3.30;;;;;;;14.54;nan;101626.47;5016683;28;20033;-40
2022/05/13 06:57:25;;;;;;;9.73;3.33;;;;;;;14.51;nan;101622.41;5021247;28;20529;-41
2022/05/13 06:59:51;;;;;;;11.30;3.83;;;;;;;14.65;nan;101628.25;5019801;28;20025;-41
2022/05/13 07:02:17;;;;;;;5.25;2.90;;;;;;;14.79;nan;101624.88;5023665;28;20021;-41
2022/05/13 07:04:44;;;;;;;8.50;3.28;;;;;;;14.96;nan;101623.97;5024389;28;20025;-42
2022/05/13 07:07:10;;;;;;;10.52;3.63;;;;;;;15.00;nan;101608.88;5022688;28;20116;-41
2022/05/13 07:09:37;;;;;;;11.60;3.97;;;;;;;15.10;nan;101608.97;5020341;28;20589;-41
2022/05/13 07:12:03;;;;;;;7.50;3.47;;;;;;;15.22;nan;101620.41;5018129;28;20033;-42
2022/05/13 07:14:28;;;;;;;2.95;2.00;;;;;;;15.31;nan;101616.19;5016678;28;20088;-41
2022/05/13 07:16:55;;;;;;;4.50;1.38;;;;;;;15.36;nan;101618.09;5023773;28;20121;-41
2022/05/13 07:19:22;;;;;;;6.55;1.45;;;;;;;15.39;nan;101609.47;5027864;28;20045;-41
2022/05/13 07:21:48;;;;;;;5.47;1.27;;;;;;;15.45;nan;101610.34;5023352;28;20045;-41
2022/05/13 07:24:13;;;;;;;3.17;1.42;;;;;;;15.54;nan;101606.88;5015358;28;20060;-41
2022/05/13 07:26:39;;;;;;;4.07;1.52;;;;;;;15.61;nan;101610.19;5020145;28;20112;-41
2022/05/13 07:29:05;;;;;;;3.50;1.08;;;;;;;15.71;nan;101602.16;5018408;28;20112;-41
2022/05/13 07:31:31;;;;;;;3.88;1.42;;;;;;;15.77;nan;101594.88;5016573;28;20033;-41
2022/05/13 07:33:57;;;;;;;3.47;1.20;;;;;;;15.86;nan;101598.72;5012940;28;20465;-41
2022/05/13 07:36:22;;;;;;;7.85;1.10;;;;;;;15.95;nan;101602.53;5021687;28;20057;-42
2022/05/13 07:41:32;;;;;;;2.90;0.88;;;;;;;16.06;nan;101621.53;5012324;28;20044;-41
2022/05/13 07:43:57;;;;;;;5.90;1.23;;;;;;;16.12;nan;101612.34;5020514;28;20506;-42
2022/05/13 07:46:23;;;;;;;8.63;1.48;;;;;;;16.21;nan;101616.19;5024083;28;20082;-41
2022/05/13 07:48:51;;;;;;;2.85;1.02;;;;;;;16.29;nan;101616.47;5025770;28;20416;-41
2022/05/13 07:51:17;;;;;;;4.72;1.10;;;;;;;16.35;nan;101620.03;5012577;28;20037;-41
2022/05/13 07:53:43;;;;;;;1.98;0.90;;;;;;;16.41;nan;101621.66;5012621;28;20049;-41
2022/05/13 07:56:09;;;;;;;5.03;1.23;;;;;;;16.44;nan;101612.19;5016377;28;20546;-41
2022/05/13 07:58:35;;;;;;;4.68;1.40;;;;;;;16.48;nan;101614.09;5013338;28;20173;-41
2022/05/13 08:01:00;;;;;;;5.82;1.77;;;;;;;16.53;nan;101607.91;5016218;28;20026;-42
2022/05/13 08:03:30;;;;;;;5.50;1.33;;;;;;;16.54;nan;101615.75;5018816;28;20036;-41
2022/05/13 08:06:02;;;;;;;6.78;1.95;;;;;;;16.62;nan;101620.63;5017352;28;20072;-41
2022/05/13 08:08:40;;;;;;;5.13;1.20;;;;;;;16.63;nan;101622.25;5019217;28;20057;-41
2022/05/13 08:11:08;;;;;;;5.22;1.33;;;;;;;16.61;nan;101616.31;5016788;28;20426;-41
2022/05/13 08:13:34;;;;;;;5.03;1.20;;;;;;;16.62;nan;101617.94;5017651;28;20112;-40
2022/05/13 08:16:02;;;;;;;5.18;1.50;;;;;;;16.58;nan;101619.56;5017640;28;20124;-43
2022/05/13 08:18:28;;;;;;;3.47;1.30;;;;;;;16.54;nan;101623.06;5025820;28;20483;-41
2022/05/13 08:20:53;;;;;;;3.03;1.05;;;;;;;16.51;nan;101607.34;5019523;28;20036;-41
2022/05/13 08:23:22;;;;;;;5.80;0.80;;;;;;;16.45;nan;101606.53;5009710;28;20473;-42
2022/05/13 08:25:49;;;;;;;6.80;1.10;;;;;;;16.45;nan;101609.22;5022222;28;20283;-42
2022/05/13 08:28:16;;;;;;;3.08;0.80;;;;;;;16.49;nan;101604.91;5018023;28;20029;-43
2022/05/13 08:30:42;;;;;;;3.67;1.08;;;;;;;16.40;nan;101606.53;5018731;28;20626;-41
2022/05/13 08:33:08;;;;;;;4.90;1.10;;;;;;;16.37;nan;101612.47;5018716;28;20125;-41
2022/05/13 08:35:38;;;;;;;6.95;1.20;;;;;;;16.15;nan;101606.41;5022505;28;20025;-42
2022/05/13 08:38:06;;;;;;;6.72;1.10;;;;;;;15.99;nan;101609.06;5022519;28;20031;-41
2022/05/13 08:40:50;;;;;;;3.25;0.90;;;;;;;15.95;nan;101605.25;5026217;28;20029;-41
2022/05/13 08:43:25;;;;;;;5.38;1.30;;;;;;;16.07;nan;101615.03;5021096;28;20395;-42
2022/05/13 08:45:57;;;;;;;2.00;0.68;;;;;;;16.13;nan;101609.38;5025304;28;20025;-41
2022/05/13 08:48:30;;;;;;;1.65;0.93;;;;;;;16.15;nan;101603.72;5020548;28;20040;-43
2022/05/13 08:51:09;;;;;;;5.32;1.40;;;;;;;16.22;nan;101588.06;5020588;28;20060;-41
2022/05/13 08:53:49;;;;;;;4.28;1.40;;;;;;;16.19;nan;101597.53;5015595;28;20041;-41
2022/05/13 08:56:25;;;;;;;4.75;1.30;;;;;;;16.06;nan;101599.91;5024934;28;20029;-41
2022/05/13 08:59:00;;;;;;;6.47;1.30;;;;;;;16.19;nan;101602.13;5025929;28;20382;-41
2022/05/13 09:01:32;;;;;;;4.28;0.95;;;;;;;16.32;nan;101598.91;5018567;28;20470;-42
2022/05/13 09:04:12;;;;;;;4.97;1.20;;;;;;;16.43;nan;101595.16;5021800;28;20041;-41
2022/05/13 09:06:53;;;;;;;3.47;1.27;;;;;;;16.52;nan;101590.88;5024512;28;20104;-42
2022/05/13 09:09:19;;;;;;;5.25;1.17;;;;;;;16.60;nan;101590.34;5019510;28;20025;-41
2022/05/13 09:12:17;;;;;;;6.28;1.40;;;;;;;16.59;nan;101594.13;5016727;28;20025;-41
2022/05/13 09:15:08;;;;;;;3.55;1.48;;;;;;;16.36;nan;101600.03;5016101;28;20040;-41
2022/05/13 09:17:41;;;;;;;4.88;1.70;;;;;;;16.42;nan;101593.53;5016776;28;20037;-42
2022/05/13 09:20:10;;;;;;;6.60;1.60;;;;;;;16.47;nan;101590.03;5015198;28;20474;-41
2022/05/13 09:22:45;;;;;;;3.97;1.63;;;;;;;16.31;nan;101602.69;5019518;28;20041;-41
2022/05/13 09:25:21;;;;;;;;;;;;;;;16.24;nan;101596.72;5020290;28;20029;-41
2022/05/13 09:27:49;;;;;;;4.07;1.10;;;;;;;16.23;nan;101589.69;5021934;28;19913;-41
2022/05/13 09:30:34;;;;;;;2.35;1.60;;;;;;;16.22;nan;101593.47;5019846;28;20403;-41
2022/05/13 09:33:19;;;;;;;;;;;;;;;16.18;nan;101592.38;5020245;28;20033;-41
2022/05/13 09:35:45;;;;;;;4.00;1.33;;;;;;;16.13;nan;101584.25;5020565;28;19921;-41
2022/05/13 09:38:17;;;;;;;2.55;1.40;;;;;;;16.13;nan;101576.94;5019482;28;20053;-42
2022/05/13 09:40:58;;;;;;;2.72;1.50;;;;;;;16.21;nan;101567.53;5018601;28;20145;-42
2022/05/13 09:43:43;;;;;;;8.02;1.55;;;;;;;16.12;nan;101561.00;5016449;28;20061;-41
2022/05/13 09:46:19;;;;;;;5.43;2.10;;;;;;;16.24;nan;101570.50;5012190;28;20060;-42
2022/05/13 09:48:59;;;;;;;7.07;1.92;;;;;;;16.38;nan;101567.31;5016408;28;20487;-41
2022/05/13 09:51:33;;;;;;;6.47;1.88;;;;;;;16.44;nan;101561.63;5015403;28;20025;-41
2022/05/13 09:54:05;;;;;;;7.13;1.80;;;;;;;16.61;nan;101554.09;5017873;28;20026;-41
2022/05/13 09:56:42;;;;;;;6.28;2.08;;;;;;;16.67;nan;101556.81;5018607;28;20460;-41
2022/05/13 09:59:17;;;;;;;9.10;2.33;;;;;;;16.81;nan;101568.75;5013563;28;20116;-41
2022/05/13 10:01:43;;;;;;;5.50;2.40;;;;;;;16.91;nan;101558.75;5016033;28;20037;-41
2022/05/13 10:04:12;;;;;;;6.63;2.10;;;;;;;16.97;nan;101562.25;5019806;28;20026;-41
2022/05/13 10:06:40;;;;;;;10.15;2.85;;;;;;;17.08;nan;101563.06;5012283;28;20079;-41
2022/05/13 10:15:13;;;;;;;4.97;1.90;;;;;;;17.38;nan;101551.38;5018941;28;20087;-41
2022/05/13 10:17:49;;;;;;;4.65;1.83;;;;;;;17.32;nan;101550.59;5016812;28;20030;-41
2022/05/13 10:20:49;;;;;;;5.60;2.22;;;;;;;17.36;nan;101554.38;5017148;28;20021;-42
2022/05/13 10:23:19;;;;;;;5.90;2.15;;;;;;;17.51;nan;101548.09;4981808;28;20737;-41
2022/05/13 10:25:53;;;;;;;4.88;1.83;;;;;;;17.52;nan;101549.72;5016484;28;20049;-41
2022/05/13 10:28:21;;;;;;;4.88;1.63;;;;;;;17.42;nan;101545.16;5015374;28;20029;-43
2022/05/13 10:30:54;;;;;;;5.30;1.80;;;;;;;17.42;nan;101547.06;5017833;28;20435;-41
2022/05/13 10:33:26;;;;;;;4.95;1.75;;;;;;;17.31;nan;101548.97;5018010;28;20227;-41
2022/05/13 10:36:06;;;;;;;6.68;2.00;;;;;;;17.38;nan;101537.84;5014379;28;20455;-41
2022/05/13 10:38:48;;;;;;;6.18;2.20;;;;;;;17.66;nan;101534.53;5021842;28;20488;-41
2022/05/13 10:41:48;;;;;;;5.03;1.75;;;;;;;18.05;nan;101539.28;5020303;28;20672;-41
2022/05/13 10:44:38;;;;;;;5.47;1.63;;;;;;;18.02;nan;101539.81;4984977;28;20558;-41
2022/05/13 10:47:18;;;;;;;3.92;1.77;;;;;;;17.95;nan;101539.31;5018507;28;20052;-41
2022/05/13 10:49:44;;;;;;;3.33;1.77;;;;;;;17.81;nan;101533.69;5025506;28;20566;-41
2022/05/13 10:52:34;;;;;;;5.78;1.80;;;;;;;17.94;nan;101535.78;5011681;28;20033;-41
2022/05/13 10:55:08;;;;;;;4.88;1.70;;;;;;;17.96;nan;101521.97;5015631;28;20044;-41
2022/05/13 10:57:51;;;;;;;3.17;1.70;;;;;;;18.04;nan;101529.50;5015980;28;20080;-41
2022/05/13 11:00:20;;;;;;;6.20;1.70;;;;;;;18.09;nan;101526.78;5010353;28;20032;-41
2022/05/13 11:03:14;;;;;;;5.03;1.70;;;;;;;18.26;nan;101518.25;5019198;28;20026;-41
2022/05/13 11:05:53;;;;;;;6.93;1.80;;;;;;;18.15;nan;101522.97;5023420;28;20041;-41
2022/05/13 11:08:30;;;;;;;4.10;1.60;;;;;;;18.26;nan;101529.13;5021050;28;20030;-41
2022/05/13 11:11:41;;;;;;;1.70;1.35;;;;;;;18.58;nan;101524.03;5023300;28;20025;-43
2022/05/13 11:14:16;;;;;;;4.22;1.42;;;;;;;18.86;nan;101518.97;4960305;28;20023;-42
2022/05/13 11:16:56;;;;;;;2.65;1.30;;;;;;;19.08;nan;101507.63;5014098;28;20426;-41
2022/05/13 11:19:40;;;;;;;2.72;1.33;;;;;;;19.09;nan;101509.25;5024390;28;20064;-41
2022/05/13 11:22:34;;;;;;;8.07;1.42;;;;;;;19.25;nan;101503.38;5018745;28;20025;-41
2022/05/13 11:28:09;;;;;;;5.18;1.80;;;;;;;19.70;nan;101509.41;5022332;28;20044;-42
2022/05/13 11:30:53;;;;;;;5.40;1.60;;;;;;;19.67;nan;101507.28;5020216;28;20490;-41
2022/05/13 11:33:41;;;;;;;4.25;1.60;;;;;;;19.39;nan;101514.38;5015094;28;20083;-42
2022/05/13 11:36:15;;;;;;;7.32;1.67;;;;;;;19.15;nan;101527.09;5022863;28;20032;-43
2022/05/13 11:38:43;;;;;;;8.65;1.45;;;;;;;18.86;nan;101519.78;5021620;28;20475;-41
2022/05/13 11:41:13;;;;;;;6.00;1.98;;;;;;;18.56;nan;101515.34;5020526;28;20060;-41
2022/05/13 11:43:59;;;;;;;5.22;2.15;;;;;;;18.31;nan;101513.63;5022885;28;20033;-41
2022/05/13 11:46:48;;;;;;;7.72;1.55;;;;;;;18.29;nan;101525.84;5019050;28;20474;-42
2022/05/13 11:49:33;;;;;;;4.30;1.50;;;;;;;18.35;nan;101520.13;5021849;28;20087;-41
2022/05/13 11:52:11;;;;;;;7.63;1.67;;;;;;;18.30;nan;101522.84;5022081;28;20041;-41
2022/05/13 11:54:38;;;;;;;7.70;1.92;;;;;;;18.30;nan;101522.84;5021264;28;20490;-41
2022/05/13 11:57:25;;;;;;;7.05;1.90;;;;;;;18.22;nan;101528.88;5023863;28;20036;-41
2022/05/13 11:59:52;;;;;;;4.55;1.92;;;;;;;18.07;nan;101515.38;5021708;28;20040;-41
2022/05/13 12:02:56;;;;;;;6.70;1.70;;;;;;;17.97;nan;101521.69;5021861;28;20040;-42
2022/05/13 12:05:22;;;;;;;6.30;1.70;;;;;;;17.79;nan;101525.03;5007678;28;20073;-41
2022/05/13 12:07:57;;;;;;;4.50;1.40;;;;;;;17.81;nan;101536.41;5016906;28;20056;-42
2022/05/13 12:10:40;;;;;;;;;;;;;;;17.73;nan;101537.75;5021184;28;20036;-41
2022/05/13 12:13:15;;;;;;;6.15;1.30;;;;;;;17.67;nan;101544.28;5019267;28;20090;-42
2022/05/13 12:15:46;;;;;;;7.63;1.25;;;;;;;17.74;nan;101542.09;5020519;28;20036;-41
2022/05/13 12:18:27;;;;;;;3.60;1.20;;;;;;;17.65;nan;101556.47;5023197;28;20041;-42
2022/05/13 12:21:09;;;;;;;3.75;1.65;;;;;;;17.59;nan;101560.28;5021346;28;20037;-42
2022/05/13 12:24:03;;;;;;;4.43;1.58;;;;;;;17.41;nan;101562.47;5018280;28;20104;-41
2022/05/13 12:26:50;;;;;;;3.13;1.50;;;;;;;17.44;nan;101547.59;5006907;28;20550;-41
2022/05/13 12:29:20;;;;;;;5.22;1.95;;;;;;;17.55;nan;101545.66;5020268;28;20036;-41